sensor_id;sensor_type;location;lat;lon;timestamp;pressure;altitude;pressure_sealevel;temperature;humidity
26563;BME280;14217;50.986;5.826;2024-03-17T00:00:46;101710.09;;;19.79;45.77
26563;BME280;14217;50.986;5.826;2024-03-17T00:05:47;101705.59;;;19.81;45.79
26563;BME280;14217;50.986;5.826;2024-03-17T00:10:52;101693.16;;;19.81;45.78
26563;BME280;14217;50.986;5.826;2024-03-17T00:15:53;101699.41;;;19.80;45.75
26563;BME280;14217;50.986;5.826;2024-03-17T00:20:54;101692.41;;;19.78;45.90
26563;BME280;14217;50.986;5.826;2024-03-17T00:25:55;101690.66;;;19.77;45.76
26563;BME280;14217;50.986;5.826;2024-03-17T00:30:56;101688.06;;;19.75;45.77
26563;BME280;14217;50.986;5.826;2024-03-17T00:35:59;101683.50;;;19.79;45.65
26563;BME280;14217;50.986;5.826;2024-03-17T00:41:02;101673.84;;;19.76;45.53
26563;BME280;14217;50.986;5.826;2024-03-17T00:46:03;101675.53;;;19.79;45.74
26563;BME280;14217;50.986;5.826;2024-03-17T00:51:04;101667.53;;;19.79;45.64
26563;BME280;14217;50.986;5.826;2024-03-17T00:56:05;101665.16;;;19.71;46.02
26563;BME280;14217;50.986;5.826;2024-03-17T01:01:07;101665.06;;;19.74;45.61
26563;BME280;14217;50.986;5.826;2024-03-17T01:06:08;101662.44;;;19.73;45.56
26563;BME280;14217;50.986;5.826;2024-03-17T01:11:08;101654.41;;;19.74;45.87
26563;BME280;14217;50.986;5.826;2024-03-17T01:16:14;101643.94;;;19.69;45.56
26563;BME280;14217;50.986;5.826;2024-03-17T01:21:15;101634.13;;;19.72;45.64
26563;BME280;14217;50.986;5.826;2024-03-17T01:26:16;101634.00;;;19.75;45.84
26563;BME280;14217;50.986;5.826;2024-03-17T01:31:17;101629.56;;;19.75;45.56
26563;BME280;14217;50.986;5.826;2024-03-17T01:36:18;101629.75;;;19.69;45.80
26563;BME280;14217;50.986;5.826;2024-03-17T01:41:18;101622.66;;;19.69;45.58
26563;BME280;14217;50.986;5.826;2024-03-17T01:46:20;101619.03;;;19.72;45.79
26563;BME280;14217;50.986;5.826;2024-03-17T01:51:21;101621.75;;;19.70;45.92
26563;BME280;14217;50.986;5.826;2024-03-17T01:56:23;101619.03;;;19.72;46.04
26563;BME280;14217;50.986;5.826;2024-03-17T02:01:24;101617.44;;;19.66;46.14
26563;BME280;14217;50.986;5.826;2024-03-17T02:06:26;101620.03;;;19.68;46.10
26563;BME280;14217;50.986;5.826;2024-03-17T02:11:31;101618.31;;;19.67;46.03
26563;BME280;14217;50.986;5.826;2024-03-17T02:16:32;101612.94;;;19.68;45.91
26563;BME280;14217;50.986;5.826;2024-03-17T02:21:34;101608.47;;;19.69;45.89
26563;BME280;14217;50.986;5.826;2024-03-17T02:26:34;101602.28;;;19.68;45.63
26563;BME280;14217;50.986;5.826;2024-03-17T02:31:36;101598.81;;;19.66;46.03
26563;BME280;14217;50.986;5.826;2024-03-17T02:36:36;101598.72;;;19.69;45.85
26563;BME280;14217;50.986;5.826;2024-03-17T02:41:37;101588.09;;;19.69;45.79
26563;BME280;14217;50.986;5.826;2024-03-17T02:46:42;101592.59;;;19.67;46.01
26563;BME280;14217;50.986;5.826;2024-03-17T02:51:43;101589.84;;;19.70;45.74
26563;BME280;14217;50.986;5.826;2024-03-17T02:56:44;101578.38;;;19.68;45.90
26563;BME280;14217;50.986;5.826;2024-03-17T03:01:45;101574.91;;;19.66;46.15
26563;BME280;14217;50.986;5.826;2024-03-17T03:06:46;101579.34;;;19.66;46.06
26563;BME280;14217;50.986;5.826;2024-03-17T03:11:47;101582.00;;;19.66;46.17
26563;BME280;14217;50.986;5.826;2024-03-17T03:16:48;101572.38;;;19.63;45.77
26563;BME280;14217;50.986;5.826;2024-03-17T03:21:49;101582.00;;;19.66;45.88
26563;BME280;14217;50.986;5.826;2024-03-17T03:26:51;101576.81;;;19.63;45.86
26563;BME280;14217;50.986;5.826;2024-03-17T03:31:51;101563.44;;;19.64;45.90
26563;BME280;14217;50.986;5.826;2024-03-17T03:36:52;101566.25;;;19.61;46.01
26563;BME280;14217;50.986;5.826;2024-03-17T03:41:53;101548.50;;;19.62;46.07
26563;BME280;14217;50.986;5.826;2024-03-17T03:46:55;101564.16;;;19.69;45.99
26563;BME280;14217;50.986;5.826;2024-03-17T03:51:59;101550.16;;;19.64;45.97
26563;BME280;14217;50.986;5.826;2024-03-17T03:56:59;101548.31;;;19.66;45.79
26563;BME280;14217;50.986;5.826;2024-03-17T04:02:00;101538.56;;;19.67;45.81
26563;BME280;14217;50.986;5.826;2024-03-17T04:07:01;101539.69;;;19.60;46.16
26563;BME280;14217;50.986;5.826;2024-03-17T04:12:02;101535.16;;;19.63;46.11
26563;BME280;14217;50.986;5.826;2024-03-17T04:17:03;101537.53;;;19.71;45.98
26563;BME280;14217;50.986;5.826;2024-03-17T04:22:04;101528.88;;;19.64;45.79
26563;BME280;14217;50.986;5.826;2024-03-17T04:27:05;101522.72;;;19.64;45.87
26563;BME280;14217;50.986;5.826;2024-03-17T04:32:06;101533.28;;;19.65;45.85
26563;BME280;14217;50.986;5.826;2024-03-17T04:37:07;101521.84;;;19.63;46.07
26563;BME280;14217;50.986;5.826;2024-03-17T04:42:08;101521.94;;;19.60;46.03
26563;BME280;14217;50.986;5.826;2024-03-17T04:47:09;101519.44;;;19.57;46.33
26563;BME280;14217;50.986;5.826;2024-03-17T04:52:11;101511.22;;;19.63;45.86
26563;BME280;14217;50.986;5.826;2024-03-17T04:57:13;101506.00;;;19.60;46.16
26563;BME280;14217;50.986;5.826;2024-03-17T05:02:14;101499.72;;;19.63;46.12
26563;BME280;14217;50.986;5.826;2024-03-17T05:07:15;101503.34;;;19.60;45.94
26563;BME280;14217;50.986;5.826;2024-03-17T05:12:16;101508.66;;;19.60;46.01
26563;BME280;14217;50.986;5.826;2024-03-17T05:17:17;101509.59;;;19.59;46.18
26563;BME280;14217;50.986;5.826;2024-03-17T05:22:18;101507.03;;;19.56;45.95
26563;BME280;14217;50.986;5.826;2024-03-17T05:27:19;101504.34;;;19.58;45.88
26563;BME280;14217;50.986;5.826;2024-03-17T05:32:19;101505.31;;;19.55;45.99
26563;BME280;14217;50.986;5.826;2024-03-17T05:37:20;101503.34;;;19.60;46.06
26563;BME280;14217;50.986;5.826;2024-03-17T05:42:21;101501.81;;;19.55;46.29
26563;BME280;14217;50.986;5.826;2024-03-17T05:47:23;101497.13;;;19.61;45.90
26563;BME280;14217;50.986;5.826;2024-03-17T05:52:24;101498.03;;;19.60;45.94
26563;BME280;14217;50.986;5.826;2024-03-17T05:57:24;101493.47;;;19.64;45.90
26563;BME280;14217;50.986;5.826;2024-03-17T06:02:25;101495.56;;;19.56;45.96
26563;BME280;14217;50.986;5.826;2024-03-17T06:07:26;101498.22;;;19.56;45.84
26563;BME280;14217;50.986;5.826;2024-03-17T06:12:27;101500.81;;;19.57;46.18
26563;BME280;14217;50.986;5.826;2024-03-17T06:17:27;101499.06;;;19.56;45.97
26563;BME280;14217;50.986;5.826;2024-03-17T06:22:28;101492.72;;;19.60;45.74
26563;BME280;14217;50.986;5.826;2024-03-17T06:27:29;101479.56;;;19.57;46.06
26563;BME280;14217;50.986;5.826;2024-03-17T06:32:31;101483.06;;;19.58;46.06
26563;BME280;14217;50.986;5.826;2024-03-17T06:37:32;101478.75;;;19.55;46.05
26563;BME280;14217;50.986;5.826;2024-03-17T06:42:33;101480.34;;;19.59;45.81
26563;BME280;14217;50.986;5.826;2024-03-17T06:47:35;101491.00;;;19.59;45.74
26563;BME280;14217;50.986;5.826;2024-03-17T06:52:36;101504.34;;;19.58;45.95
26563;BME280;14217;50.986;5.826;2024-03-17T06:57:37;101499.06;;;19.56;46.09
26563;BME280;14217;50.986;5.826;2024-03-17T07:02:38;101514.13;;;19.57;45.74
26563;BME280;14217;50.986;5.826;2024-03-17T07:07:38;101500.81;;;19.57;45.97
26563;BME280;14217;50.986;5.826;2024-03-17T07:12:40;101500.00;;;19.55;45.87
26563;BME280;14217;50.986;5.826;2024-03-17T07:17:41;101509.03;;;19.51;45.86
26563;BME280;14217;50.986;5.826;2024-03-17T07:22:41;101501.72;;;19.56;46.09
26563;BME280;14217;50.986;5.826;2024-03-17T07:27:42;101508.78;;;19.57;45.89
26563;BME280;14217;50.986;5.826;2024-03-17T07:32:43;101501.72;;;19.56;45.90
26563;BME280;14217;50.986;5.826;2024-03-17T07:37:44;101492.91;;;19.56;45.88
26563;BME280;14217;50.986;5.826;2024-03-17T07:42:45;101502.72;;;19.54;45.92
26563;BME280;14217;50.986;5.826;2024-03-17T07:47:45;101492.94;;;19.54;45.85
26563;BME280;14217;50.986;5.826;2024-03-17T07:52:46;101484.16;;;19.52;45.84
26563;BME280;14217;50.986;5.826;2024-03-17T07:57:47;101466.25;;;19.57;46.00
26563;BME280;14217;50.986;5.826;2024-03-17T08:02:48;101470.88;;;19.52;46.00
26563;BME280;14217;50.986;5.826;2024-03-17T08:07:49;101468.13;;;19.55;45.77
26563;BME280;14217;50.986;5.826;2024-03-17T08:12:49;101476.13;;;19.54;45.80
26563;BME280;14217;50.986;5.826;2024-03-17T08:17:50;101464.66;;;19.53;46.06
26563;BME280;14217;50.986;5.826;2024-03-17T08:22:51;101477.81;;;19.56;45.73
26563;BME280;14217;50.986;5.826;2024-03-17T08:27:52;101461.19;;;19.51;46.00
26563;BME280;14217;50.986;5.826;2024-03-17T08:32:53;101464.06;;;19.45;46.37
26563;BME280;14217;50.986;5.826;2024-03-17T08:37:54;101465.47;;;19.55;46.54
26563;BME280;14217;50.986;5.826;2024-03-17T08:42:55;101461.06;;;19.54;46.60
26563;BME280;14217;50.986;5.826;2024-03-17T08:47:56;101458.28;;;19.57;46.17
26563;BME280;14217;50.986;5.826;2024-03-17T08:52:56;101459.09;;;19.59;46.22
26563;BME280;14217;50.986;5.826;2024-03-17T08:57:57;101456.00;;;19.48;46.83
26563;BME280;14217;50.986;5.826;2024-03-17T09:02:58;101461.19;;;19.51;46.93
26563;BME280;14217;50.986;5.826;2024-03-17T09:07:58;101458.72;;;19.46;47.19
26563;BME280;14217;50.986;5.826;2024-03-17T09:12:59;101456.63;;;19.55;47.23
26563;BME280;14217;50.986;5.826;2024-03-17T09:18:00;101452.84;;;19.60;46.61
26563;BME280;14217;50.986;5.826;2024-03-17T09:23:02;101451.13;;;19.59;46.66
26563;BME280;14217;50.986;5.826;2024-03-17T09:28:04;101455.50;;;19.60;46.49
26563;BME280;14217;50.986;5.826;2024-03-17T09:33:05;101450.41;;;19.54;46.05
26563;BME280;14217;50.986;5.826;2024-03-17T09:38:05;101446.84;;;19.55;46.08
26563;BME280;14217;50.986;5.826;2024-03-17T09:43:08;101446.22;;;19.48;45.45
26563;BME280;14217;50.986;5.826;2024-03-17T09:48:14;101447.03;;;19.50;45.14
26563;BME280;14217;50.986;5.826;2024-03-17T09:53:16;101444.75;;;19.63;44.27
26563;BME280;14217;50.986;5.826;2024-03-17T09:58:18;101449.28;;;19.61;44.12
26563;BME280;14217;50.986;5.826;2024-03-17T10:03:39;101440.53;;;19.58;44.05
26563;BME280;14217;50.986;5.826;2024-03-17T10:08:48;101458.91;;;19.64;43.78
26563;BME280;14217;50.986;5.826;2024-03-17T10:14:02;101448.28;;;19.64;43.37
26563;BME280;14217;50.986;5.826;2024-03-17T10:19:16;101455.25;;;19.66;43.28
26563;BME280;14217;50.986;5.826;2024-03-17T10:24:23;101447.47;;;19.62;43.33
26563;BME280;14217;50.986;5.826;2024-03-17T10:29:25;101450.78;;;19.45;42.40
26563;BME280;14217;50.986;5.826;2024-03-17T10:34:27;101448.31;;;19.40;41.74
26563;BME280;14217;50.986;5.826;2024-03-17T10:39:35;101445.84;;;19.36;41.33
26563;BME280;14217;50.986;5.826;2024-03-17T10:44:41;101443.06;;;19.39;42.43
26563;BME280;14217;50.986;5.826;2024-03-17T10:49:43;101442.63;;;19.49;42.61
26563;BME280;14217;50.986;5.826;2024-03-17T10:54:51;101439.06;;;19.50;42.89
26563;BME280;14217;50.986;5.826;2024-03-17T10:59:53;101440.59;;;19.56;43.08
26563;BME280;14217;50.986;5.826;2024-03-17T11:10:05;101443.16;;;19.59;42.87
26563;BME280;14217;50.986;5.826;2024-03-17T11:20:27;101438.44;;;19.66;42.33
26563;BME280;14217;50.986;5.826;2024-03-17T11:35:41;101441.19;;;19.41;44.04
26563;BME280;14217;50.986;5.826;2024-03-17T11:40:42;101446.41;;;19.44;43.79
26563;BME280;14217;50.986;5.826;2024-03-17T11:45:45;101432.56;;;19.36;44.02
26563;BME280;14217;50.986;5.826;2024-03-17T11:50:45;101420.50;;;19.49;44.01
26563;BME280;14217;50.986;5.826;2024-03-17T11:55:49;101412.28;;;19.55;43.67
26563;BME280;14217;50.986;5.826;2024-03-17T12:00:53;101410.53;;;19.54;43.67
26563;BME280;14217;50.986;5.826;2024-03-17T12:05:54;101400.63;;;19.59;43.47
26563;BME280;14217;50.986;5.826;2024-03-17T12:10:55;101385.53;;;19.60;43.10
26563;BME280;14217;50.986;5.826;2024-03-17T12:16:14;101373.28;;;19.56;43.03
26563;BME280;14217;50.986;5.826;2024-03-17T12:21:15;101364.25;;;19.60;43.18
26563;BME280;14217;50.986;5.826;2024-03-17T12:26:16;101362.44;;;19.60;42.70
26563;BME280;14217;50.986;5.826;2024-03-17T12:31:17;101356.22;;;19.61;42.93
26563;BME280;14217;50.986;5.826;2024-03-17T12:36:18;101356.09;;;19.64;42.68
26563;BME280;14217;50.986;5.826;2024-03-17T12:41:19;101346.44;;;19.62;42.83
26563;BME280;14217;50.986;5.826;2024-03-17T12:46:22;101346.44;;;19.62;42.82
26563;BME280;14217;50.986;5.826;2024-03-17T12:51:22;101346.19;;;19.68;42.28
26563;BME280;14217;50.986;5.826;2024-03-17T12:56:24;101344.41;;;19.68;42.45
26563;BME280;14217;50.986;5.826;2024-03-17T13:01:44;101349.16;;;19.60;42.87
26563;BME280;14217;50.986;5.826;2024-03-17T13:06:44;101340.34;;;19.60;42.86
26563;BME280;14217;50.986;5.826;2024-03-17T13:11:46;101332.06;;;19.67;42.72
26563;BME280;14217;50.986;5.826;2024-03-17T13:16:47;101321.13;;;19.53;43.33
26563;BME280;14217;50.986;5.826;2024-03-17T13:21:48;101312.50;;;19.68;42.63
26563;BME280;14217;50.986;5.826;2024-03-17T13:26:48;101308.19;;;19.66;42.97
26563;BME280;14217;50.986;5.826;2024-03-17T13:31:51;101303.50;;;19.73;42.94
26563;BME280;14217;50.986;5.826;2024-03-17T13:36:55;101294.66;;;19.72;42.94
26563;BME280;14217;50.986;5.826;2024-03-17T13:41:56;101294.84;;;19.67;42.91
26563;BME280;14217;50.986;5.826;2024-03-17T13:47:02;101282.16;;;19.74;42.54
26563;BME280;14217;50.986;5.826;2024-03-17T13:52:04;101274.25;;;19.73;42.78
26563;BME280;14217;50.986;5.826;2024-03-17T13:57:05;101267.44;;;19.65;42.55
26563;BME280;14217;50.986;5.826;2024-03-17T14:02:09;101264.56;;;19.72;42.70
26563;BME280;14217;50.986;5.826;2024-03-17T14:07:12;101257.50;;;19.70;42.42
26563;BME280;14217;50.986;5.826;2024-03-17T14:12:13;101251.31;;;19.70;42.27
26563;BME280;14217;50.986;5.826;2024-03-17T14:17:14;101240.72;;;19.68;42.20
26563;BME280;14217;50.986;5.826;2024-03-17T14:22:15;101246.88;;;19.70;42.21
26563;BME280;14217;50.986;5.826;2024-03-17T14:27:16;101234.69;;;19.65;42.28
26563;BME280;14217;50.986;5.826;2024-03-17T14:32:17;101234.59;;;19.66;42.15
26563;BME280;14217;50.986;5.826;2024-03-17T14:37:18;101226.56;;;19.68;42.22
26563;BME280;14217;50.986;5.826;2024-03-17T14:42:20;101217.06;;;19.62;42.21
26563;BME280;14217;50.986;5.826;2024-03-17T14:47:21;101218.66;;;19.66;42.00
26563;BME280;14217;50.986;5.826;2024-03-17T14:52:22;101216.00;;;19.66;42.13
26563;BME280;14217;50.986;5.826;2024-03-17T14:57:23;101206.06;;;19.72;41.83
26563;BME280;14217;50.986;5.826;2024-03-17T15:02:23;101210.81;;;19.63;42.21
26563;BME280;14217;50.986;5.826;2024-03-17T15:07:25;101207.78;;;19.73;41.69
26563;BME280;14217;50.986;5.826;2024-03-17T15:12:26;101204.31;;;19.70;41.64
26563;BME280;14217;50.986;5.826;2024-03-17T15:17:27;101189.56;;;19.63;42.04
26563;BME280;14217;50.986;5.826;2024-03-17T15:22:28;101186.75;;;19.66;41.91
26563;BME280;14217;50.986;5.826;2024-03-17T15:27:29;101179.56;;;19.68;41.63
26563;BME280;14217;50.986;5.826;2024-03-17T15:32:29;101174.22;;;19.70;41.51
26563;BME280;14217;50.986;5.826;2024-03-17T15:37:31;101169.88;;;19.67;41.55
26563;BME280;14217;50.986;5.826;2024-03-17T15:42:32;101160.97;;;19.68;41.78
26563;BME280;14217;50.986;5.826;2024-03-17T15:47:33;101155.75;;;19.67;41.90
26563;BME280;14217;50.986;5.826;2024-03-17T15:52:34;101157.50;;;19.66;41.71
26563;BME280;14217;50.986;5.826;2024-03-17T15:57:37;101149.63;;;19.65;41.77
26563;BME280;14217;50.986;5.826;2024-03-17T16:02:38;101141.56;;;19.66;41.88
26563;BME280;14217;50.986;5.826;2024-03-17T16:07:38;101136.19;;;19.68;41.87
26563;BME280;14217;50.986;5.826;2024-03-17T16:12:40;101129.91;;;19.69;41.54
26563;BME280;14217;50.986;5.826;2024-03-17T16:17:40;101130.34;;;19.60;42.16
26563;BME280;14217;50.986;5.826;2024-03-17T16:22:43;101130.03;;;19.47;43.78
26563;BME280;14217;50.986;5.826;2024-03-17T16:27:45;101126.09;;;19.56;44.35
26563;BME280;14217;50.986;5.826;2024-03-17T16:32:46;101127.38;;;19.47;45.13
26563;BME280;14217;50.986;5.826;2024-03-17T16:37:49;101121.34;;;19.62;44.56
26563;BME280;14217;50.986;5.826;2024-03-17T16:42:49;101127.25;;;19.69;44.81
26563;BME280;14217;50.986;5.826;2024-03-17T16:47:52;101122.16;;;19.64;45.00
26563;BME280;14217;50.986;5.826;2024-03-17T16:52:53;101124.56;;;19.70;45.19
26563;BME280;14217;50.986;5.826;2024-03-17T16:57:54;101127.09;;;19.74;45.32
26563;BME280;14217;50.986;5.826;2024-03-17T17:02:55;101129.81;;;19.72;45.71
26563;BME280;14217;50.986;5.826;2024-03-17T17:07:55;101128.03;;;19.73;46.14
26563;BME280;14217;50.986;5.826;2024-03-17T17:12:56;101127.16;;;19.72;46.46
26563;BME280;14217;50.986;5.826;2024-03-17T17:17:57;101124.56;;;19.70;46.51
26563;BME280;14217;50.986;5.826;2024-03-17T17:22:58;101122.16;;;19.64;46.58
26563;BME280;14217;50.986;5.826;2024-03-17T17:27:59;101119.25;;;19.70;46.34
26563;BME280;14217;50.986;5.826;2024-03-17T17:33:00;101113.19;;;19.67;46.38
26563;BME280;14217;50.986;5.826;2024-03-17T17:38:02;101118.41;;;19.70;45.84
26563;BME280;14217;50.986;5.826;2024-03-17T17:43:04;101114.91;;;19.68;46.19
26563;BME280;14217;50.986;5.826;2024-03-17T17:48:05;101117.38;;;19.73;45.92
26563;BME280;14217;50.986;5.826;2024-03-17T17:53:06;101112.25;;;19.68;45.77
26563;BME280;14217;50.986;5.826;2024-03-17T17:58:08;101119.75;;;19.58;46.27
26563;BME280;14217;50.986;5.826;2024-03-17T18:03:08;101115.97;;;19.64;46.63
26563;BME280;14217;50.986;5.826;2024-03-17T18:08:09;101114.19;;;19.64;46.51
26563;BME280;14217;50.986;5.826;2024-03-17T18:13:10;101119.25;;;19.70;46.49
26563;BME280;14217;50.986;5.826;2024-03-17T18:18:11;101128.03;;;19.73;45.99
26563;BME280;14217;50.986;5.826;2024-03-17T18:23:11;101120.06;;;19.73;46.15
26563;BME280;14217;50.986;5.826;2024-03-17T18:28:12;101112.00;;;19.74;46.09
26563;BME280;14217;50.986;5.826;2024-03-17T18:33:17;101121.06;;;19.70;46.12
26563;BME280;14217;50.986;5.826;2024-03-17T18:38:20;101116.47;;;19.74;45.85
26563;BME280;14217;50.986;5.826;2024-03-17T18:43:21;101121.84;;;19.72;46.25
26563;BME280;14217;50.986;5.826;2024-03-17T18:48:21;101112.81;;;19.76;45.71
26563;BME280;14217;50.986;5.826;2024-03-17T18:53:23;101113.06;;;19.70;45.88
26563;BME280;14217;50.986;5.826;2024-03-17T18:58:24;101097.06;;;19.72;46.00
26563;BME280;14217;50.986;5.826;2024-03-17T19:03:25;101100.53;;;19.74;45.79
26563;BME280;14217;50.986;5.826;2024-03-17T19:08:28;101105.56;;;19.80;45.52
26563;BME280;14217;50.986;5.826;2024-03-17T19:13:29;101106.69;;;19.74;45.64
26563;BME280;14217;50.986;5.826;2024-03-17T19:18:35;101107.56;;;19.75;45.64
26563;BME280;14217;50.986;5.826;2024-03-17T19:23:41;101103.97;;;19.76;45.52
26563;BME280;14217;50.986;5.826;2024-03-17T19:28:42;101096.69;;;19.79;45.66
26563;BME280;14217;50.986;5.826;2024-03-17T19:33:43;101096.84;;;19.76;45.48
26563;BME280;14217;50.986;5.826;2024-03-17T19:38:44;101096.25;;;19.69;45.40
26563;BME280;14217;50.986;5.826;2024-03-17T19:43:51;101091.03;;;19.66;46.08
26563;BME280;14217;50.986;5.826;2024-03-17T19:48:54;101090.53;;;19.79;46.33
26563;BME280;14217;50.986;5.826;2024-03-17T19:53:55;101085.28;;;19.77;46.04
26563;BME280;14217;50.986;5.826;2024-03-17T19:58:56;101081.69;;;19.78;46.08
26563;BME280;14217;50.986;5.826;2024-03-17T20:03:57;101077.38;;;19.76;46.32
26563;BME280;14217;50.986;5.826;2024-03-17T20:08:57;101071.06;;;19.78;45.92
26563;BME280;14217;50.986;5.826;2024-03-17T20:13:58;101069.25;;;19.79;45.88
26563;BME280;14217;50.986;5.826;2024-03-17T20:19:00;101074.50;;;19.80;46.04
26563;BME280;14217;50.986;5.826;2024-03-17T20:24:00;101078.31;;;19.75;45.98
26563;BME280;14217;50.986;5.826;2024-03-17T20:29:01;101079.16;;;19.75;46.08
26563;BME280;14217;50.986;5.826;2024-03-17T20:34:03;101073.03;;;19.73;46.54
26563;BME280;14217;50.986;5.826;2024-03-17T20:39:03;101069.31;;;19.77;46.33
26563;BME280;14217;50.986;5.826;2024-03-17T20:44:04;101067.81;;;19.72;46.82
26563;BME280;14217;50.986;5.826;2024-03-17T20:49:05;101050.94;;;19.73;46.46
26563;BME280;14217;50.986;5.826;2024-03-17T20:54:06;101057.19;;;19.72;46.84
26563;BME280;14217;50.986;5.826;2024-03-17T20:59:07;101041.31;;;19.70;46.84
26563;BME280;14217;50.986;5.826;2024-03-17T21:04:07;101046.63;;;19.70;46.93
26563;BME280;14217;50.986;5.826;2024-03-17T21:09:08;101035.75;;;19.75;46.67
26563;BME280;14217;50.986;5.826;2024-03-17T21:14:10;101035.03;;;19.71;46.54
26563;BME280;14217;50.986;5.826;2024-03-17T21:19:11;101030.59;;;19.72;46.58
26563;BME280;14217;50.986;5.826;2024-03-17T21:24:12;101018.22;;;19.70;46.78
26563;BME280;14217;50.986;5.826;2024-03-17T21:29:13;101037.56;;;19.74;46.78
26563;BME280;14217;50.986;5.826;2024-03-17T21:34:14;101037.63;;;19.73;47.36
26563;BME280;14217;50.986;5.826;2024-03-17T21:39:14;101039.91;;;19.61;46.86
26563;BME280;14217;50.986;5.826;2024-03-17T21:44:17;101033.72;;;19.61;46.68
26563;BME280;14217;50.986;5.826;2024-03-17T21:49:19;101028.41;;;19.61;47.19
26563;BME280;14217;50.986;5.826;2024-03-17T21:54:19;101019.44;;;19.63;46.88
26563;BME280;14217;50.986;5.826;2024-03-17T21:59:21;101027.34;;;19.65;46.79
26563;BME280;14217;50.986;5.826;2024-03-17T22:04:22;101019.28;;;19.66;46.54
26563;BME280;14217;50.986;5.826;2024-03-17T22:09:23;101019.09;;;19.71;46.35
26563;BME280;14217;50.986;5.826;2024-03-17T22:14:23;101013.91;;;19.68;46.36
26563;BME280;14217;50.986;5.826;2024-03-17T22:19:24;101016.56;;;19.68;46.25
26563;BME280;14217;50.986;5.826;2024-03-17T22:24:25;101008.44;;;19.71;46.23
26563;BME280;14217;50.986;5.826;2024-03-17T22:29:26;101021.81;;;19.69;46.39
26563;BME280;14217;50.986;5.826;2024-03-17T22:34:27;101012.09;;;19.68;46.20
26563;BME280;14217;50.986;5.826;2024-03-17T22:39:28;101004.97;;;19.69;46.14
26563;BME280;14217;50.986;5.826;2024-03-17T22:44:28;101001.44;;;19.70;46.16
26563;BME280;14217;50.986;5.826;2024-03-17T22:49:29;101001.44;;;19.70;46.18
26563;BME280;14217;50.986;5.826;2024-03-17T22:54:32;100993.56;;;19.67;46.03
26563;BME280;14217;50.986;5.826;2024-03-17T22:59:33;100988.16;;;19.68;46.33
26563;BME280;14217;50.986;5.826;2024-03-17T23:04:34;100987.25;;;19.69;46.09
26563;BME280;14217;50.986;5.826;2024-03-17T23:09:35;100992.56;;;19.69;46.11
26563;BME280;14217;50.986;5.826;2024-03-17T23:14:36;100980.28;;;19.67;46.18
26563;BME280;14217;50.986;5.826;2024-03-17T23:19:37;100980.16;;;19.70;46.02
26563;BME280;14217;50.986;5.826;2024-03-17T23:24:37;100975.03;;;19.65;46.04
26563;BME280;14217;50.986;5.826;2024-03-17T23:29:38;100971.31;;;19.69;46.23
26563;BME280;14217;50.986;5.826;2024-03-17T23:34:39;100967.91;;;19.66;46.31
26563;BME280;14217;50.986;5.826;2024-03-17T23:39:40;100974.97;;;19.67;46.03
26563;BME280;14217;50.986;5.826;2024-03-17T23:44:42;100963.44;;;19.66;46.27
26563;BME280;14217;50.986;5.826;2024-03-17T23:49:43;100965.19;;;19.67;46.30
26563;BME280;14217;50.986;5.826;2024-03-17T23:54:44;100968.75;;;19.66;46.16
26563;BME280;14217;50.986;5.826;2024-03-17T23:59:46;100966.88;;;19.70;46.23
